Time;durP1;ratioP1;P1;durP2;ratioP2;P2;SDS_P1;SDS_P2;PMS_P1;PMS_P2;Temp;Humidity;BMP_temperature;BMP_pressure;BME280_temperature;BME280_humidity;BME280_pressure;Samples;Min_cycle;Max_cycle;Signal;HPM_P1;HPM_P2
2023/07/02 00:02:25;;;;;;;5.50;1.85;;;;;;;;;;4994076;28;20057;-65
2023/07/02 00:04:52;;;;;;;8.52;2.20;;;;;;;;;;4990938;28;20108;-65
2023/07/02 00:07:18;;;;;;;8.98;2.40;;;;;;;;;;4991086;28;20058;-67
2023/07/02 00:09:45;;;;;;;8.95;2.88;;;;;;;;;;4994598;28;20141;-66
2023/07/02 00:12:13;;;;;;;9.07;3.15;;;;;;;;;;4994908;28;20132;-67
2023/07/02 00:14:39;;;;;;;11.48;2.88;;;;;;;;;;4976432;28;20060;-68
2023/07/02 00:17:06;;;;;;;13.98;3.67;;;;;;;;;;4975752;28;20145;-67
2023/07/02 00:19:32;;;;;;;11.45;2.50;;;;;;;;;;4981500;28;20056;-67
2023/07/02 00:21:59;;;;;;;9.82;2.53;;;;;;;;;;4976969;28;20050;-67
2023/07/02 00:24:25;;;;;;;12.32;2.53;;;;;;;;;;4960136;28;20113;-66
2023/07/02 00:26:52;;;;;;;7.00;2.33;;;;;;;;;;4959655;28;20044;-67
2023/07/02 00:29:20;;;;;;;10.73;3.28;;;;;;;;;;4994700;28;20229;-68
2023/07/02 00:31:46;;;;;;;9.02;2.72;;;;;;;;;;4981888;28;20065;-68
2023/07/02 00:34:13;;;;;;;6.40;2.60;;;;;;;;;;4980875;28;20051;-68
2023/07/02 00:36:41;;;;;;;11.95;3.97;;;;;;;;;;4985901;28;20070;-70
2023/07/02 00:39:08;;;;;;;12.13;3.15;;;;;;;;;;4995758;28;20054;-68
2023/07/02 00:41:34;;;;;;;12.73;3.13;;;;;;;;;;4979049;28;20225;-66
2023/07/02 00:44:00;;;;;;;11.85;3.58;;;;;;;;;;4979493;28;20144;-65
2023/07/02 00:46:29;;;;;;;9.93;3.35;;;;;;;;;;4975426;28;20144;-67
2023/07/02 00:48:56;;;;;;;9.15;3.35;;;;;;;;;;4978896;28;20058;-66
2023/07/02 00:51:24;;;;;;;12.10;3.38;;;;;;;;;;4981038;28;20132;-65
2023/07/02 00:53:51;;;;;;;8.53;3.00;;;;;;;;;;4981432;28;20058;-67
2023/07/02 00:56:18;;;;;;;10.90;3.60;;;;;;;;;;4970192;28;20309;-66
2023/07/02 00:58:48;;;;;;;11.45;3.35;;;;;;;;;;4973162;28;20148;-66
2023/07/02 01:01:15;;;;;;;12.32;3.60;;;;;;;;;;4980999;28;20054;-67
2023/07/02 01:03:53;;;;;;;13.80;3.03;;;;;;;;;;4978611;28;21707;-65
2023/07/02 01:06:24;;;;;;;10.52;3.17;;;;;;;;;;4978686;28;20146;-66
2023/07/02 01:08:51;;;;;;;12.02;2.80;;;;;;;;;;4975435;28;20876;-66
2023/07/02 01:11:18;;;;;;;11.68;3.30;;;;;;;;;;4979867;28;20058;-66
2023/07/02 01:13:45;;;;;;;9.00;2.95;;;;;;;;;;4980086;28;20058;-66
2023/07/02 01:16:11;;;;;;;10.95;2.97;;;;;;;;;;4977508;28;20050;-66
2023/07/02 01:18:38;;;;;;;9.73;3.60;;;;;;;;;;4972727;28;20066;-66
2023/07/02 01:21:07;;;;;;;12.10;3.13;;;;;;;;;;4981390;28;20060;-67
2023/07/02 01:23:36;;;;;;;15.68;4.13;;;;;;;;;;4978626;28;20061;-66
2023/07/02 01:26:02;;;;;;;11.10;3.33;;;;;;;;;;4959152;28;20060;-66
2023/07/02 01:28:35;;;;;;;12.77;3.85;;;;;;;;;;4975982;28;20109;-66
2023/07/02 01:31:02;;;;;;;11.18;3.08;;;;;;;;;;4979568;28;20065;-67
2023/07/02 01:33:28;;;;;;;8.48;3.03;;;;;;;;;;4978579;28;20050;-66
2023/07/02 01:35:55;;;;;;;14.75;4.22;;;;;;;;;;4977111;28;20070;-66
2023/07/02 01:38:23;;;;;;;7.60;2.58;;;;;;;;;;4979860;28;20050;-66
2023/07/02 01:40:49;;;;;;;12.38;3.60;;;;;;;;;;4972004;28;20062;-67
2023/07/02 01:43:16;;;;;;;11.82;3.95;;;;;;;;;;4978155;28;20116;-65
2023/07/02 01:45:43;;;;;;;11.05;3.45;;;;;;;;;;4976809;28;20064;-65
2023/07/02 01:48:09;;;;;;;8.15;3.17;;;;;;;;;;4974284;28;20051;-67
2023/07/02 01:50:36;;;;;;;10.15;3.15;;;;;;;;;;4953724;28;20063;-67
2023/07/02 01:53:02;;;;;;;8.45;3.10;;;;;;;;;;4961309;28;20063;-66
2023/07/02 01:55:30;;;;;;;11.25;3.58;;;;;;;;;;4974932;28;20059;-65
2023/07/02 01:57:56;;;;;;;13.77;3.60;;;;;;;;;;4958208;28;20157;-65
2023/07/02 02:00:24;;;;;;;12.80;3.08;;;;;;;;;;4977035;28;20085;-66
2023/07/02 02:02:50;;;;;;;10.43;3.15;;;;;;;;;;4979094;28;20054;-67
2023/07/02 02:05:17;;;;;;;14.20;3.67;;;;;;;;;;4960196;28;20050;-66
2023/07/02 02:07:43;;;;;;;14.38;3.70;;;;;;;;;;4978980;28;20066;-67
2023/07/02 02:10:10;;;;;;;9.45;3.38;;;;;;;;;;4979500;28;20062;-66
2023/07/02 02:12:38;;;;;;;9.27;3.10;;;;;;;;;;4971151;28;20050;-67
2023/07/02 02:15:05;;;;;;;12.77;3.47;;;;;;;;;;4965459;28;20066;-66
2023/07/02 02:17:31;;;;;;;12.57;3.70;;;;;;;;;;4979039;28;20062;-66
2023/07/02 02:19:58;;;;;;;12.32;3.47;;;;;;;;;;4978884;28;20070;-66
2023/07/02 02:22:24;;;;;;;10.63;3.35;;;;;;;;;;4973647;28;20161;-68
2023/07/02 02:24:51;;;;;;;11.48;3.35;;;;;;;;;;4965563;28;20062;-66
2023/07/02 02:27:17;;;;;;;8.75;3.47;;;;;;;;;;4984225;28;20100;-67
2023/07/02 02:29:45;;;;;;;13.30;3.10;;;;;;;;;;4993426;28;20060;-67
2023/07/02 02:34:41;;;;;;;13.15;3.45;;;;;;;;;;4904079;29;20050;-67
2023/07/02 02:37:08;;;;;;;14.25;3.33;;;;;;;;;;4935172;28;20071;-67
2023/07/02 02:39:34;;;;;;;9.27;3.90;;;;;;;;;;4922219;29;20063;-67
2023/07/02 02:42:01;;;;;;;13.00;3.35;;;;;;;;;;4907763;29;20056;-66
2023/07/02 02:44:32;;;;;;;10.07;3.47;;;;;;;;;;4914315;28;20047;-69
2023/07/02 02:47:00;;;;;;;13.15;2.92;;;;;;;;;;4921633;29;20062;-67
2023/07/02 02:49:26;;;;;;;12.40;2.90;;;;;;;;;;4918308;29;20151;-67
2023/07/02 02:51:53;;;;;;;8.77;3.22;;;;;;;;;;4934536;28;20062;-67
2023/07/02 02:54:19;;;;;;;12.27;3.33;;;;;;;;;;4915977;28;20059;-66
2023/07/02 02:56:46;;;;;;;10.48;3.00;;;;;;;;;;4912915;28;20055;-67
2023/07/02 02:59:12;;;;;;;8.43;3.13;;;;;;;;;;4918460;29;20114;-66
2023/07/02 03:01:39;;;;;;;10.80;3.90;;;;;;;;;;4920442;28;20061;-67
2023/07/02 03:04:08;;;;;;;13.68;3.20;;;;;;;;;;4898514;29;20057;-67
2023/07/02 03:06:34;;;;;;;9.35;2.63;;;;;;;;;;4923476;28;20060;-67
2023/07/02 03:09:01;;;;;;;10.98;2.92;;;;;;;;;;4915771;29;20077;-67
2023/07/02 03:11:27;;;;;;;8.60;3.92;;;;;;;;;;4918017;29;20067;-67
2023/07/02 03:13:53;;;;;;;8.15;3.00;;;;;;;;;;4906222;28;20067;-66
2023/07/02 03:16:21;;;;;;;15.18;3.58;;;;;;;;;;4917391;29;20055;-68
2023/07/02 03:18:47;;;;;;;12.93;3.75;;;;;;;;;;4913131;28;20075;-67
2023/07/02 03:21:15;;;;;;;13.68;3.75;;;;;;;;;;4920975;29;20055;-67
2023/07/02 03:23:42;;;;;;;6.28;2.25;;;;;;;;;;4918182;29;20187;-68
2023/07/02 03:26:08;;;;;;;6.80;2.60;;;;;;;;;;4915646;29;20094;-67
2023/07/02 03:28:34;;;;;;;8.43;2.67;;;;;;;;;;4895257;28;20150;-67
2023/07/02 03:31:01;;;;;;;9.32;2.50;;;;;;;;;;4903059;29;20070;-67
2023/07/02 03:33:27;;;;;;;14.88;4.50;;;;;;;;;;4919336;29;20094;-67
2023/07/02 03:35:54;;;;;;;14.73;3.53;;;;;;;;;;4915039;29;20067;-67
2023/07/02 03:38:25;;;;;;;8.73;3.05;;;;;;;;;;4910775;29;20066;-67
2023/07/02 03:40:51;;;;;;;11.48;2.92;;;;;;;;;;4909551;29;20060;-67
2023/07/02 03:43:18;;;;;;;10.00;3.10;;;;;;;;;;4916716;28;20369;-67
2023/07/02 03:45:44;;;;;;;12.68;4.18;;;;;;;;;;4888922;29;20069;-67
2023/07/02 03:48:13;;;;;;;10.35;3.13;;;;;;;;;;4865846;29;20056;-66
2023/07/02 03:50:39;;;;;;;9.55;2.92;;;;;;;;;;4878638;29;20072;-66
2023/07/02 03:53:06;;;;;;;9.68;3.22;;;;;;;;;;4885576;29;20135;-66
2023/07/02 03:55:33;;;;;;;8.40;2.85;;;;;;;;;;4884576;29;20123;-67
2023/07/02 03:58:00;;;;;;;10.55;3.42;;;;;;;;;;4886020;29;20072;-67
2023/07/02 04:00:26;;;;;;;9.02;3.53;;;;;;;;;;4878409;29;20060;-66
2023/07/02 04:02:53;;;;;;;6.53;2.85;;;;;;;;;;4883422;29;20294;-66
2023/07/02 04:05:19;;;;;;;12.40;3.85;;;;;;;;;;4880872;29;20064;-66
2023/07/02 04:07:46;;;;;;;10.63;2.83;;;;;;;;;;4885477;29;20052;-66
2023/07/02 04:10:15;;;;;;;10.43;3.25;;;;;;;;;;4910874;29;20060;-66
2023/07/02 04:12:43;;;;;;;12.88;3.30;;;;;;;;;;4898249;28;20075;-66
2023/07/02 04:15:09;;;;;;;11.30;3.53;;;;;;;;;;4882941;29;20150;-66
2023/07/02 04:17:36;;;;;;;10.90;3.05;;;;;;;;;;4922700;29;20329;-66
2023/07/02 04:20:03;;;;;;;15.98;3.72;;;;;;;;;;4919153;29;20060;-66
2023/07/02 04:22:30;;;;;;;14.95;3.92;;;;;;;;;;4913437;29;20064;-66
2023/07/02 04:24:56;;;;;;;12.15;3.70;;;;;;;;;;4900920;29;20120;-66
2023/07/02 04:27:23;;;;;;;12.75;4.03;;;;;;;;;;4905954;29;20079;-66
2023/07/02 04:29:51;;;;;;;10.77;3.25;;;;;;;;;;4886857;29;20060;-66
2023/07/02 04:32:20;;;;;;;9.45;3.47;;;;;;;;;;4905164;29;20056;-66
2023/07/02 04:34:47;;;;;;;11.98;3.13;;;;;;;;;;4864962;29;20992;-66
2023/07/02 04:37:15;;;;;;;13.05;3.30;;;;;;;;;;4917916;28;20103;-66
2023/07/02 04:39:41;;;;;;;15.43;3.90;;;;;;;;;;4919828;29;20052;-66
2023/07/02 04:42:09;;;;;;;11.40;2.75;;;;;;;;;;4916374;29;20075;-67
2023/07/02 04:44:36;;;;;;;13.02;3.90;;;;;;;;;;4871258;29;20085;-66
2023/07/02 04:47:04;;;;;;;8.90;3.65;;;;;;;;;;4885837;29;20060;-66
2023/07/02 04:49:31;;;;;;;15.10;3.60;;;;;;;;;;4899986;29;20175;-66
2023/07/02 04:51:57;;;;;;;11.63;3.38;;;;;;;;;;4886270;29;20068;-66
2023/07/02 04:54:24;;;;;;;11.63;4.10;;;;;;;;;;4878455;29;20060;-67
2023/07/02 04:56:50;;;;;;;14.07;3.20;;;;;;;;;;4897528;29;20084;-66
2023/07/02 04:59:17;;;;;;;9.93;3.47;;;;;;;;;;4883599;29;20109;-66
2023/07/02 05:01:44;;;;;;;16.92;4.90;;;;;;;;;;4884838;29;20143;-67
2023/07/02 05:04:14;;;;;;;10.18;3.47;;;;;;;;;;4873983;29;20214;-68
2023/07/02 05:06:41;;;;;;;15.68;3.10;;;;;;;;;;4913705;28;20060;-68
2023/07/02 05:09:07;;;;;;;8.85;3.15;;;;;;;;;;4901859;29;20059;-68
2023/07/02 05:11:34;;;;;;;15.75;4.55;;;;;;;;;;4918009;29;20074;-68
2023/07/02 05:14:00;;;;;;;13.00;4.22;;;;;;;;;;4900001;29;20056;-69
2023/07/02 05:16:27;;;;;;;19.38;4.57;;;;;;;;;;4913742;28;20148;-70
2023/07/02 05:18:53;;;;;;;13.75;3.75;;;;;;;;;;4902008;29;20138;-68
2023/07/02 05:21:21;;;;;;;13.75;3.53;;;;;;;;;;4919828;29;20060;-68
2023/07/02 05:23:48;;;;;;;15.80;4.38;;;;;;;;;;4902279;29;20044;-68
2023/07/02 05:26:15;;;;;;;15.88;4.18;;;;;;;;;;4908314;28;20060;-68
2023/07/02 05:28:41;;;;;;;14.38;3.85;;;;;;;;;;4895338;28;20123;-68
2023/07/02 05:31:08;;;;;;;10.57;3.30;;;;;;;;;;4903589;29;20275;-69
2023/07/02 05:33:34;;;;;;;13.00;3.63;;;;;;;;;;4912463;28;20052;-68
2023/07/02 05:36:01;;;;;;;14.50;3.97;;;;;;;;;;4904064;29;20096;-69
2023/07/02 05:38:28;;;;;;;13.57;3.20;;;;;;;;;;4900175;29;20071;-69
2023/07/02 05:40:55;;;;;;;20.67;4.93;;;;;;;;;;4912867;29;20060;-68
2023/07/02 05:43:22;;;;;;;17.58;4.68;;;;;;;;;;4919033;29;20158;-69
2023/07/02 05:45:48;;;;;;;9.23;3.30;;;;;;;;;;4902635;29;20150;-69
2023/07/02 05:48:14;;;;;;;14.88;3.42;;;;;;;;;;4900880;29;20143;-69
2023/07/02 05:50:41;;;;;;;13.88;4.65;;;;;;;;;;4909098;29;20056;-69
2023/07/02 05:53:09;;;;;;;14.73;4.63;;;;;;;;;;4908210;29;20067;-68
2023/07/02 05:55:39;;;;;;;11.60;3.57;;;;;;;;;;4902094;29;20426;-68
2023/07/02 05:58:06;;;;;;;8.48;3.30;;;;;;;;;;4902668;29;20060;-69
2023/07/02 06:00:32;;;;;;;11.98;3.85;;;;;;;;;;4899408;29;20064;-68
2023/07/02 06:02:59;;;;;;;15.27;4.13;;;;;;;;;;4917596;29;20099;-70
2023/07/02 06:05:25;;;;;;;15.13;3.55;;;;;;;;;;4891343;28;20098;-68
2023/07/02 06:07:53;;;;;;;11.18;3.45;;;;;;;;;;4907827;29;20064;-69
2023/07/02 06:10:20;;;;;;;9.55;3.45;;;;;;;;;;4900704;29;20249;-69
2023/07/02 06:12:52;;;;;;;9.18;2.80;;;;;;;;;;4926856;28;20178;-68
2023/07/02 06:15:18;;;;;;;12.75;3.30;;;;;;;;;;4900850;28;20130;-69
2023/07/02 06:17:45;;;;;;;13.57;4.20;;;;;;;;;;4921650;28;20095;-69
2023/07/02 06:20:12;;;;;;;19.10;4.13;;;;;;;;;;4884325;29;20072;-68
2023/07/02 06:22:42;;;;;;;14.35;4.10;;;;;;;;;;4876632;29;20083;-66
2023/07/02 06:25:08;;;;;;;18.55;4.05;;;;;;;;;;4888576;29;20063;-70
2023/07/02 06:27:35;;;;;;;15.68;4.20;;;;;;;;;;4898130;29;20060;-68
2023/07/02 06:30:03;;;;;;;16.20;4.05;;;;;;;;;;4900713;29;20088;-67
2023/07/02 06:32:29;;;;;;;17.45;3.80;;;;;;;;;;4894133;29;20048;-66
2023/07/02 06:34:56;;;;;;;14.40;3.33;;;;;;;;;;4910782;29;20280;-67
2023/07/02 06:37:22;;;;;;;12.52;3.85;;;;;;;;;;4904122;29;20071;-67
2023/07/02 06:39:49;;;;;;;13.63;3.72;;;;;;;;;;4920087;29;20088;-67
2023/07/02 06:42:15;;;;;;;18.05;4.28;;;;;;;;;;4921349;29;20059;-67
2023/07/02 06:44:42;;;;;;;13.45;3.40;;;;;;;;;;4903552;28;20162;-67
2023/07/02 06:47:10;;;;;;;16.55;4.53;;;;;;;;;;4923799;29;20107;-67
2023/07/02 06:49:38;;;;;;;8.95;2.97;;;;;;;;;;4899364;29;20067;-67
2023/07/02 06:52:05;;;;;;;13.80;4.15;;;;;;;;;;4902641;29;20064;-67
2023/07/02 06:54:31;;;;;;;12.55;3.35;;;;;;;;;;4890087;28;20059;-66
2023/07/02 06:56:58;;;;;;;14.07;4.70;;;;;;;;;;4930423;29;20331;-67
2023/07/02 06:59:24;;;;;;;10.18;3.50;;;;;;;;;;4919372;29;20154;-66
2023/07/02 07:01:51;;;;;;;13.48;3.58;;;;;;;;;;4905058;29;20179;-66
2023/07/02 07:04:19;;;;;;;14.50;4.07;;;;;;;;;;4917995;29;20055;-66
2023/07/02 07:06:46;;;;;;;11.20;3.15;;;;;;;;;;4923537;29;20207;-67
2023/07/02 07:09:14;;;;;;;14.50;4.13;;;;;;;;;;4924401;29;20146;-68
2023/07/02 07:11:40;;;;;;;9.20;3.55;;;;;;;;;;4921121;28;20147;-66
2023/07/02 07:14:07;;;;;;;12.30;3.53;;;;;;;;;;4919347;28;20215;-66
2023/07/02 07:16:33;;;;;;;10.85;3.60;;;;;;;;;;4897526;29;20059;-65
2023/07/02 07:19:03;;;;;;;13.23;3.50;;;;;;;;;;4910698;29;20059;-66
2023/07/02 07:21:31;;;;;;;17.42;3.78;;;;;;;;;;4921187;28;20060;-66
2023/07/02 07:23:58;;;;;;;11.75;3.45;;;;;;;;;;4920134;29;20059;-66
2023/07/02 07:26:25;;;;;;;12.52;3.03;;;;;;;;;;4920954;28;20056;-66
2023/07/02 07:28:51;;;;;;;15.38;3.60;;;;;;;;;;4924859;29;20067;-67
2023/07/02 07:31:20;;;;;;;13.23;3.70;;;;;;;;;;4925784;29;20166;-66
2023/07/02 07:33:46;;;;;;;13.80;3.75;;;;;;;;;;4924940;29;20043;-67
2023/07/02 07:36:15;;;;;;;9.10;3.08;;;;;;;;;;4905536;29;20146;-67
2023/07/02 07:38:43;;;;;;;12.80;3.70;;;;;;;;;;4920921;29;20331;-67
2023/07/02 07:41:10;;;;;;;13.02;3.65;;;;;;;;;;4911815;28;20085;-67
2023/07/02 07:43:41;;;;;;;15.90;3.60;;;;;;;;;;4922876;29;20158;-66
2023/07/02 07:46:08;;;;;;;14.63;3.60;;;;;;;;;;4923784;28;20063;-66
2023/07/02 07:48:34;;;;;;;11.38;3.50;;;;;;;;;;4925234;29;20058;-66
2023/07/02 07:51:01;;;;;;;13.10;3.92;;;;;;;;;;4923173;29;20051;-66
2023/07/02 07:53:27;;;;;;;15.20;3.60;;;;;;;;;;4922781;28;20074;-66
2023/07/02 07:55:55;;;;;;;12.25;3.95;;;;;;;;;;4890343;29;20114;-67
2023/07/02 07:58:23;;;;;;;11.93;3.65;;;;;;;;;;4906004;29;20130;-67
2023/07/02 08:00:50;;;;;;;9.63;2.87;;;;;;;;;;4922188;29;20055;-66
2023/07/02 08:03:16;;;;;;;19.27;7.28;;;;;;;;;;4923630;28;20307;-67
2023/07/02 08:05:43;;;;;;;12.23;4.20;;;;;;;;;;4909766;29;20040;-66
2023/07/02 08:08:09;;;;;;;15.80;4.00;;;;;;;;;;4906317;29;20063;-66
2023/07/02 08:10:36;;;;;;;11.68;3.85;;;;;;;;;;4893406;29;20060;-67
2023/07/02 08:13:04;;;;;;;16.92;3.88;;;;;;;;;;4884543;29;20052;-66
2023/07/02 08:15:30;;;;;;;13.10;3.40;;;;;;;;;;4888147;29;20071;-66
2023/07/02 08:17:58;;;;;;;13.77;3.65;;;;;;;;;;4919181;29;20059;-67
2023/07/02 08:20:26;;;;;;;10.18;3.28;;;;;;;;;;4916067;29;20067;-67
2023/07/02 08:22:54;;;;;;;11.93;3.65;;;;;;;;;;4922915;29;20059;-65
2023/07/02 08:25:21;;;;;;;11.40;3.67;;;;;;;;;;4919643;29;20056;-66
2023/07/02 08:27:47;;;;;;;10.57;2.95;;;;;;;;;;4923742;29;20074;-66
2023/07/02 08:30:16;;;;;;;9.05;2.75;;;;;;;;;;4905185;29;20070;-65
2023/07/02 08:32:42;;;;;;;10.80;3.60;;;;;;;;;;4913211;29;20063;-66
2023/07/02 08:35:09;;;;;;;15.40;3.95;;;;;;;;;;4897077;29;20167;-66
2023/07/02 08:37:37;;;;;;;10.82;3.38;;;;;;;;;;4902276;29;20064;-65
2023/07/02 08:40:18;;;;;;;7.78;2.90;;;;;;;;;;4905780;29;20064;-67
2023/07/02 08:42:46;;;;;;;13.20;3.20;;;;;;;;;;4897587;29;20823;-66
2023/07/02 08:45:12;;;;;;;12.98;3.58;;;;;;;;;;4893303;29;20060;-66
2023/07/02 08:47:42;;;;;;;9.60;3.75;;;;;;;;;;4918989;29;20067;-67
2023/07/02 08:50:09;;;;;;;8.88;3.22;;;;;;;;;;4917757;29;20079;-66
2023/07/02 08:52:36;;;;;;;10.35;3.20;;;;;;;;;;4912264;28;20127;-65
2023/07/02 08:55:02;;;;;;;9.55;3.05;;;;;;;;;;4901899;29;20048;-66
2023/07/02 08:57:32;;;;;;;12.85;2.80;;;;;;;;;;4904275;29;20072;-65
2023/07/02 09:00:03;;;;;;;9.63;2.78;;;;;;;;;;4902641;29;20140;-65
2023/07/02 09:02:33;;;;;;;17.83;3.22;;;;;;;;;;4900821;29;20091;-65
2023/07/02 09:05:01;;;;;;;12.88;2.88;;;;;;;;;;4882603;29;20082;-65
2023/07/02 09:07:28;;;;;;;9.02;3.05;;;;;;;;;;4909255;29;20062;-66
2023/07/02 09:09:56;;;;;;;10.88;3.42;;;;;;;;;;4903806;28;20078;-65
2023/07/02 09:12:25;;;;;;;8.85;2.42;;;;;;;;;;4900277;29;20060;-66
2023/07/02 09:14:58;;;;;;;11.13;3.20;;;;;;;;;;4884199;29;20060;-66
2023/07/02 09:17:34;;;;;;;8.35;2.60;;;;;;;;;;4903361;29;20084;-66
2023/07/02 09:20:04;;;;;;;10.93;2.55;;;;;;;;;;4901003;29;20064;-66
2023/07/02 09:22:34;;;;;;;8.13;2.45;;;;;;;;;;4893452;29;20071;-65
2023/07/02 09:25:06;;;;;;;10.02;2.42;;;;;;;;;;4873978;29;20134;-65
2023/07/02 09:27:39;;;;;;;10.32;3.05;;;;;;;;;;4881239;29;20076;-65
2023/07/02 09:30:10;;;;;;;12.30;2.85;;;;;;;;;;4882897;29;20075;-65
2023/07/02 09:32:36;;;;;;;5.55;2.25;;;;;;;;;;4878969;29;20060;-65
2023/07/02 09:35:09;;;;;;;12.20;3.30;;;;;;;;;;4897726;29;20066;-66
2023/07/02 09:37:35;;;;;;;7.15;2.28;;;;;;;;;;4921136;29;20127;-64
2023/07/02 09:40:05;;;;;;;8.90;2.72;;;;;;;;;;4922238;28;20111;-66
2023/07/02 09:42:32;;;;;;;9.25;2.60;;;;;;;;;;4915471;28;20066;-65
2023/07/02 09:45:10;;;;;;;11.57;2.88;;;;;;;;;;4918857;29;20051;-65
2023/07/02 09:47:38;;;;;;;9.85;2.63;;;;;;;;;;4901555;29;20064;-65
2023/07/02 09:50:05;;;;;;;;;;;;;;;;;;4904202;29;20119;-65
2023/07/02 09:52:34;;;;;;;10.50;2.60;;;;;;;;;;4896788;28;19933;-65
2023/07/02 09:55:03;;;;;;;;;;;;;;;;;;4868813;28;20064;-66
2023/07/02 09:57:33;;;;;;;5.60;2.03;;;;;;;;;;4902849;29;19931;-64
2023/07/02 10:00:00;;;;;;;10.30;2.40;;;;;;;;;;4905329;28;20059;-65
2023/07/02 10:02:26;;;;;;;6.53;2.30;;;;;;;;;;4914890;28;20084;-65
2023/07/02 10:04:55;;;;;;;6.25;2.38;;;;;;;;;;4908944;28;20081;-65
2023/07/02 10:07:28;;;;;;;9.00;2.35;;;;;;;;;;4921706;28;20066;-65
2023/07/02 10:09:56;;;;;;;7.85;2.08;;;;;;;;;;4907967;29;20056;-65
2023/07/02 10:12:24;;;;;;;10.40;2.22;;;;;;;;;;4915123;28;20063;-64
2023/07/02 10:14:51;;;;;;;6.20;2.13;;;;;;;;;;4872504;29;20069;-64
2023/07/02 10:17:24;;;;;;;8.93;2.33;;;;;;;;;;4902087;29;20410;-64
2023/07/02 10:19:53;;;;;;;9.90;2.38;;;;;;;;;;4888432;29;20056;-65
2023/07/02 10:22:23;;;;;;;9.07;2.20;;;;;;;;;;4882417;29;20119;-64
2023/07/02 10:24:54;;;;;;;7.85;2.45;;;;;;;;;;4884250;28;20083;-65
2023/07/02 10:27:35;;;;;;;7.00;2.03;;;;;;;;;;4920826;29;20063;-65
2023/07/02 10:30:02;;;;;;;8.40;2.40;;;;;;;;;;4905083;29;20143;-64
2023/07/02 10:32:29;;;;;;;7.25;2.08;;;;;;;;;;4898471;28;20167;-66
2023/07/02 10:34:56;;;;;;;7.50;2.42;;;;;;;;;;4891009;28;20064;-64
2023/07/02 10:37:22;;;;;;;9.23;2.92;;;;;;;;;;4896671;29;20060;-64
2023/07/02 10:39:52;;;;;;;6.97;1.98;;;;;;;;;;4897142;29;20084;-63
2023/07/02 10:42:19;;;;;;;11.20;2.10;;;;;;;;;;4883785;29;20092;-64
2023/07/02 10:44:52;;;;;;;6.68;2.33;;;;;;;;;;4878934;29;20060;-64
2023/07/02 10:47:19;;;;;;;7.68;2.17;;;;;;;;;;4891671;29;20279;-66
2023/07/02 10:49:51;;;;;;;7.30;2.47;;;;;;;;;;4917513;29;20052;-64
2023/07/02 10:52:17;;;;;;;12.32;3.90;;;;;;;;;;4900592;29;20086;-64
2023/07/02 10:54:44;;;;;;;7.32;2.50;;;;;;;;;;4908855;28;20145;-64
2023/07/02 10:57:20;;;;;;;9.68;2.65;;;;;;;;;;4920227;28;20101;-64
2023/07/02 10:59:46;;;;;;;7.40;2.42;;;;;;;;;;4919320;28;20139;-64
2023/07/02 11:02:25;;;;;;;;;;;;;;;;;;;;;
2023/07/02 11:04:53;;;;;;;7.88;2.30;;;;;;;;;;4917739;29;20090;-63
2023/07/02 11:07:23;;;;;;;7.55;2.38;;;;;;;;;;4920119;28;20182;-66
2023/07/02 11:09:53;;;;;;;6.05;2.17;;;;;;;;;;4908172;29;20056;-64
2023/07/02 11:12:19;;;;;;;5.70;2.22;;;;;;;;;;4900462;29;20056;-64
2023/07/02 11:14:46;;;;;;;10.02;2.20;;;;;;;;;;4902081;28;20067;-64
2023/07/02 11:17:14;;;;;;;8.00;2.20;;;;;;;;;;4900047;29;20064;-64
2023/07/02 11:19:43;;;;;;;6.72;2.35;;;;;;;;;;4900694;29;20060;-65
2023/07/02 11:22:09;;;;;;;5.00;1.92;;;;;;;;;;4916886;29;20067;-64
2023/07/02 11:24:39;;;;;;;10.07;3.50;;;;;;;;;;4909344;29;20146;-66
2023/07/02 11:27:06;;;;;;;7.70;2.50;;;;;;;;;;4902754;28;20052;-64
2023/07/02 11:29:42;;;;;;;5.93;2.17;;;;;;;;;;4899537;29;20067;-64
2023/07/02 11:32:09;;;;;;;10.63;2.53;;;;;;;;;;4903112;29;20060;-64
2023/07/02 11:34:37;;;;;;;7.20;2.28;;;;;;;;;;4902442;29;20066;-65
2023/07/02 11:37:05;;;;;;;6.60;2.33;;;;;;;;;;4918692;29;20051;-66
2023/07/02 11:39:31;;;;;;;;;;;;;;;;;;4905846;29;20115;-64
2023/07/02 11:41:58;;;;;;;5.13;1.98;;;;;;;;;;4921440;29;19935;-64
2023/07/02 11:44:25;;;;;;;6.05;2.25;;;;;;;;;;4915511;29;20060;-64
2023/07/02 11:46:51;;;;;;;7.13;2.17;;;;;;;;;;4903856;29;20067;-67
2023/07/02 11:49:18;;;;;;;6.10;2.28;;;;;;;;;;4922827;29;20059;-64
2023/07/02 11:51:48;;;;;;;5.05;2.05;;;;;;;;;;4923242;29;20063;-64
2023/07/02 11:54:14;;;;;;;6.53;2.45;;;;;;;;;;4921356;29;20062;-64
2023/07/02 11:56:42;;;;;;;9.10;1.90;;;;;;;;;;4874686;28;20070;-65
2023/07/02 11:59:12;;;;;;;4.90;2.08;;;;;;;;;;4917862;29;20055;-64
2023/07/02 12:01:41;;;;;;;7.32;2.05;;;;;;;;;;4924592;29;20066;-65
2023/07/02 12:04:08;;;;;;;;;;;;;;;;;;4903580;29;20078;-65
2023/07/02 12:06:34;;;;;;;9.07;2.50;;;;;;;;;;4901199;28;19927;-65
2023/07/02 12:09:02;;;;;;;6.28;2.30;;;;;;;;;;4902853;29;20051;-64
2023/07/02 12:11:28;;;;;;;8.55;2.60;;;;;;;;;;4925136;28;20066;-65
2023/07/02 12:13:55;;;;;;;8.55;2.10;;;;;;;;;;4922675;29;20056;-65
2023/07/02 12:16:22;;;;;;;7.82;2.47;;;;;;;;;;4900582;29;20059;-66
2023/07/02 12:18:48;;;;;;;9.30;3.80;;;;;;;;;;4901763;28;20055;-66
2023/07/02 12:21:20;;;;;;;9.32;2.58;;;;;;;;;;4925528;29;20070;-64
2023/07/02 12:23:46;;;;;;;8.57;2.40;;;;;;;;;;4923651;29;20070;-64
2023/07/02 12:26:14;;;;;;;13.35;3.08;;;;;;;;;;4906042;29;20055;-63
2023/07/02 12:28:43;;;;;;;10.70;3.08;;;;;;;;;;4920556;28;20346;-64
2023/07/02 12:31:10;;;;;;;9.32;2.85;;;;;;;;;;4943756;28;20129;-64
2023/07/02 12:33:37;;;;;;;9.95;2.45;;;;;;;;;;4943450;28;20114;-66
2023/07/02 12:36:03;;;;;;;8.82;2.40;;;;;;;;;;4924015;29;20084;-64
2023/07/02 12:38:30;;;;;;;7.78;2.47;;;;;;;;;;4918382;29;20070;-64
2023/07/02 12:40:57;;;;;;;7.30;2.38;;;;;;;;;;4923966;29;20134;-65
2023/07/02 12:43:27;;;;;;;7.88;2.15;;;;;;;;;;4923471;29;20067;-66
2023/07/02 12:45:54;;;;;;;13.95;2.28;;;;;;;;;;4886978;29;20059;-65
2023/07/02 12:48:23;;;;;;;7.75;2.20;;;;;;;;;;4919709;29;20055;-65
2023/07/02 12:50:56;;;;;;;8.50;2.50;;;;;;;;;;4917891;28;20086;-65
2023/07/02 12:53:22;;;;;;;5.20;2.17;;;;;;;;;;4925703;29;20040;-64
2023/07/02 12:55:49;;;;;;;5.88;1.83;;;;;;;;;;4886338;29;20055;-65
2023/07/02 12:58:15;;;;;;;7.63;2.30;;;;;;;;;;4909969;29;20047;-66
2023/07/02 13:00:44;;;;;;;6.90;2.58;;;;;;;;;;4913415;28;20051;-65
2023/07/02 13:03:12;;;;;;;7.60;3.10;;;;;;;;;;4921999;29;20104;-65
2023/07/02 13:05:38;;;;;;;5.13;2.30;;;;;;;;;;4892666;29;20120;-65
2023/07/02 13:08:05;;;;;;;8.82;2.60;;;;;;;;;;4923297;29;20059;-66
2023/07/02 13:10:33;;;;;;;9.15;2.40;;;;;;;;;;4922858;29;20060;-67
2023/07/02 13:13:02;;;;;;;7.50;2.17;;;;;;;;;;4923314;29;20071;-65
2023/07/02 13:15:32;;;;;;;11.50;3.63;;;;;;;;;;4912697;28;20135;-66
2023/07/02 13:17:59;;;;;;;6.43;2.33;;;;;;;;;;4909887;29;20110;-66
2023/07/02 13:20:28;;;;;;;6.82;2.22;;;;;;;;;;4915897;28;20059;-66
2023/07/02 13:22:55;;;;;;;12.23;2.85;;;;;;;;;;4922951;29;20083;-65
2023/07/02 13:25:22;;;;;;;9.88;2.28;;;;;;;;;;4918685;28;20122;-65
2023/07/02 13:27:49;;;;;;;7.60;2.40;;;;;;;;;;4941343;28;20059;-65
2023/07/02 13:30:15;;;;;;;7.97;2.33;;;;;;;;;;4923686;29;20055;-65
2023/07/02 13:32:42;;;;;;;8.27;2.28;;;;;;;;;;4916521;29;20063;-66
2023/07/02 13:35:10;;;;;;;14.70;3.58;;;;;;;;;;4910146;29;20126;-66
2023/07/02 13:37:36;;;;;;;6.93;2.08;;;;;;;;;;4922372;29;20070;-66
2023/07/02 13:40:06;;;;;;;8.60;2.42;;;;;;;;;;4926467;29;20043;-65
2023/07/02 13:42:37;;;;;;;6.25;2.13;;;;;;;;;;4900344;29;20098;-65
2023/07/02 13:45:08;;;;;;;6.97;2.38;;;;;;;;;;4899467;29;20056;-66
2023/07/02 13:47:42;;;;;;;4.22;1.95;;;;;;;;;;4876580;29;20061;-66
2023/07/02 13:50:14;;;;;;;11.93;3.13;;;;;;;;;;4886718;29;20067;-66
2023/07/02 13:52:40;;;;;;;8.68;2.70;;;;;;;;;;4875059;29;20063;-66
2023/07/02 13:55:09;;;;;;;8.10;2.25;;;;;;;;;;4877979;29;20080;-65
2023/07/02 13:57:40;;;;;;;8.00;2.17;;;;;;;;;;4896155;29;20139;-66
2023/07/02 14:00:11;;;;;;;8.35;2.60;;;;;;;;;;4921575;29;20059;-67
2023/07/02 14:02:44;;;;;;;9.65;2.33;;;;;;;;;;4917711;29;20060;-66
2023/07/02 14:05:11;;;;;;;6.03;2.28;;;;;;;;;;4916877;29;20090;-66
2023/07/02 14:07:43;;;;;;;9.38;2.65;;;;;;;;;;4895053;29;20055;-70
2023/07/02 14:10:14;;;;;;;6.65;2.13;;;;;;;;;;4923776;28;20063;-72
2023/07/02 14:12:43;;;;;;;7.95;2.00;;;;;;;;;;4901582;29;20104;-70
2023/07/02 14:15:19;;;;;;;7.65;2.75;;;;;;;;;;4905751;28;20126;-69
2023/07/02 14:17:50;;;;;;;10.57;2.65;;;;;;;;;;4801180;29;20145;-73
2023/07/02 14:20:27;;;;;;;8.43;2.75;;;;;;;;;;4815633;29;20113;-72
2023/07/02 14:22:57;;;;;;;10.85;2.10;;;;;;;;;;4809930;29;20054;-70
2023/07/02 14:25:24;;;;;;;8.98;2.65;;;;;;;;;;4826253;29;20064;-70
2023/07/02 14:27:50;;;;;;;7.47;2.25;;;;;;;;;;4781317;29;20196;-68
2023/07/02 14:30:22;;;;;;;8.40;2.60;;;;;;;;;;4790756;29;20058;-69
2023/07/02 14:32:48;;;;;;;10.20;2.92;;;;;;;;;;4789201;29;20090;-67
2023/07/02 14:35:15;;;;;;;7.90;2.60;;;;;;;;;;4809408;29;20070;-68
2023/07/02 14:37:45;;;;;;;5.35;2.08;;;;;;;;;;4825777;29;20053;-69
2023/07/02 14:40:12;;;;;;;6.00;2.28;;;;;;;;;;4848807;29;20063;-69
2023/07/02 14:42:41;;;;;;;7.18;2.13;;;;;;;;;;4840840;29;20061;-69
2023/07/02 14:45:09;;;;;;;13.60;2.20;;;;;;;;;;4902279;29;20071;-67